LEBA/ODB METAR and TAF weather

Enter ICAO airport designator
Station Type Date Time Source
LEBA METAR 2019/10/23 21:00 UTC NOAA

LEBA 232100Z AUTO 25003KT 9999 FEW035 BKN047 13/11 Q1014


Station Type Date Time Source
LEBA Decoded METAR 2019/10/23 21:00 UTC NOAA

Cordoba / Aeropuerto, Spain (LEBA) 37-51N 004-51W 92M
Oct 23, 2019 - 05:00 PM EDT / 2019.10.23 2100 UTC
Wind: from the WSW (250 degrees) at 3 MPH (3 KT):0
Visibility: greater than 7 mile(s):0
Sky conditions: mostly cloudy
Temperature: 55 F (13 C)
Dew Point: 51 F (11 C)
Relative Humidity: 87%
Pressure (altimeter): 29.94 in. Hg (1014 hPa)
ob: LEBA 232100Z AUTO 25003KT 9999 FEW035 BKN047 13/11 Q1014
cycle: 21

Station Type Date Time Source
LEBA TAF 2015/01/24 09:27 UTC NOAA

TAF TAF LEBA 240800Z 2409/2421 VRB02KT CAVOK

Example: see airport list